Time;durP1;ratioP1;P1;durP2;ratioP2;P2;SDS_P1;SDS_P2;PMS_P1;PMS_P2;Temp;Humidity;BMP_temperature;BMP_pressure;BME280_temperature;BME280_humidity;BME280_pressure;Samples;Min_cycle;Max_cycle;Signal;HPM_P1;HPM_P2
2022/03/10 00:00:10;;;;;;;28.13;13.23;;;;;;;-0.44;60.52;100154.38;5051046;28;20033;-53
2022/03/10 00:02:36;;;;;;;31.67;14.27;;;;;;;-0.60;60.85;100151.53;5051585;28;20741;-51
2022/03/10 00:05:03;;;;;;;28.92;14.18;;;;;;;-0.75;60.86;100153.84;5061053;28;20056;-54
2022/03/10 00:07:28;;;;;;;32.38;13.20;;;;;;;-0.90;61.95;100151.72;5057312;28;20044;-53
2022/03/10 00:09:54;;;;;;;26.05;13.13;;;;;;;-1.02;62.96;100155.50;5058323;28;20033;-53
2022/03/10 00:12:19;;;;;;;34.63;14.23;;;;;;;-1.02;62.80;100166.03;5053350;28;20037;-53
2022/03/10 00:14:45;;;;;;;37.20;15.90;;;;;;;-1.16;65.07;100164.69;5051004;28;20471;-52
2022/03/10 00:17:10;;;;;;;31.77;15.18;;;;;;;-1.30;64.85;100162.50;5054250;28;20846;-54
2022/03/10 00:19:35;;;;;;;32.85;14.90;;;;;;;-1.34;65.33;100161.16;5055867;28;20399;-53
2022/03/10 00:22:01;;;;;;;41.20;17.65;;;;;;;-1.01;69.95;100161.59;5055796;28;20068;-54
2022/03/10 00:24:26;;;;;;;34.10;16.58;;;;;;;-0.77;70.88;100148.75;5056411;28;20447;-53
2022/03/10 00:26:52;;;;;;;34.10;13.32;;;;;;;-1.17;63.58;100147.25;5050614;28;20029;-52
2022/03/10 00:29:17;;;;;;;28.35;13.77;;;;;;;-0.74;62.06;100140.53;5066385;28;20036;-51
2022/03/10 00:31:42;;;;;;;30.67;14.00;;;;;;;-0.29;64.29;100142.34;5050213;28;20094;-52
2022/03/10 00:34:08;;;;;;;38.70;15.30;;;;;;;-0.58;62.62;100149.59;5055523;28;20041;-53
2022/03/10 00:36:33;;;;;;;36.20;14.95;;;;;;;-0.77;62.85;100142.66;5048966;28;20487;-52
2022/03/10 00:38:59;;;;;;;27.50;12.32;;;;;;;-0.84;65.64;100145.03;5059258;28;20548;-53
2022/03/10 00:41:24;;;;;;;28.50;12.85;;;;;;;-1.12;63.26;100145.03;5056337;28;20071;-52
2022/03/10 00:43:50;;;;;;;28.83;14.38;;;;;;;-1.36;63.87;100153.41;5057152;28;20364;-54
2022/03/10 00:46:15;;;;;;;25.17;12.65;;;;;;;-1.43;64.56;100143.59;5057652;28;20045;-51
2022/03/10 00:48:41;;;;;;;29.60;14.40;;;;;;;-1.12;62.92;100152.91;5055480;28;20510;-50
2022/03/10 00:51:06;;;;;;;27.02;13.25;;;;;;;-0.47;60.47;100152.03;5049933;28;20044;-50
2022/03/10 00:53:32;;;;;;;25.42;11.20;;;;;;;-0.63;60.29;100157.94;5055665;28;20776;-50
2022/03/10 00:55:57;;;;;;;26.67;13.00;;;;;;;-0.93;62.17;100156.44;5056978;28;20045;-51
2022/03/10 00:58:23;;;;;;;34.30;13.60;;;;;;;-1.31;65.87;100160.88;5060574;28;20546;-53
2022/03/10 01:00:48;;;;;;;32.90;12.98;;;;;;;-1.77;65.02;100146.72;5050165;28;20033;-53
2022/03/10 01:03:14;;;;;;;26.30;12.80;;;;;;;-1.76;64.96;100156.25;5050480;28;20036;-54
2022/03/10 01:05:39;;;;;;;25.45;11.63;;;;;;;-1.64;65.95;100152.50;5053277;28;20041;-53
2022/03/10 01:08:05;;;;;;;30.05;13.13;;;;;;;-1.63;65.22;100161.22;5056343;28;20036;-53
2022/03/10 01:10:30;;;;;;;29.75;13.05;;;;;;;-1.89;70.07;100158.34;5053246;28;20031;-52
2022/03/10 01:12:55;;;;;;;31.92;15.30;;;;;;;-2.11;67.55;100162.91;5055573;28;20032;-53
2022/03/10 01:15:23;;;;;;;29.17;15.00;;;;;;;-1.84;66.05;100149.06;5048774;28;20036;-53
2022/03/10 01:17:48;;;;;;;31.27;15.10;;;;;;;-1.35;68.92;100164.75;5048710;28;20029;-53
2022/03/10 01:20:14;;;;;;;34.22;13.98;;;;;;;-1.53;66.14;100168.09;5054377;28;20060;-52
2022/03/10 01:22:39;;;;;;;39.20;15.52;;;;;;;-1.32;65.13;100164.47;5053461;28;20032;-53
2022/03/10 01:25:05;;;;;;;29.55;14.18;;;;;;;-0.87;66.96;100167.22;5063823;28;20041;-53
2022/03/10 01:27:31;;;;;;;28.95;13.48;;;;;;;-0.69;64.95;100167.25;5052927;28;20032;-51
2022/03/10 01:29:56;;;;;;;29.55;13.57;;;;;;;-0.89;63.53;100155.19;5049489;28;20082;-53
2022/03/10 01:32:23;;;;;;;29.13;12.50;;;;;;;-0.64;67.00;100160.75;5053813;28;20407;-53
2022/03/10 01:34:48;;;;;;;30.65;13.15;;;;;;;-0.85;68.64;100159.16;5057990;28;20487;-51
2022/03/10 01:37:14;;;;;;;29.10;14.55;;;;;;;-1.08;65.47;100162.16;5053340;28;20540;-53
2022/03/10 01:39:39;;;;;;;29.13;13.93;;;;;;;-1.26;65.21;100173.59;5056236;28;20032;-50
2022/03/10 01:42:06;;;;;;;31.63;14.45;;;;;;;-1.77;66.51;100170.38;5049849;28;20040;-53
2022/03/10 01:44:32;;;;;;;30.17;13.98;;;;;;;-2.17;68.08;100158.22;5055402;28;20064;-51
2022/03/10 01:46:58;;;;;;;30.55;13.32;;;;;;;-1.89;68.44;100158.34;5052594;28;20478;-52
2022/03/10 01:49:23;;;;;;;31.05;14.48;;;;;;;-1.27;72.01;100162.25;5052413;28;20471;-53
2022/03/10 01:51:48;;;;;;;30.08;14.30;;;;;;;-1.47;66.75;100171.13;5051657;28;20048;-53
2022/03/10 01:54:14;;;;;;;29.20;13.50;;;;;;;-1.74;68.02;100159.56;5047228;28;20025;-52
2022/03/10 01:56:40;;;;;;;30.30;13.15;;;;;;;-1.93;68.69;100165.66;5048559;28;20017;-54
2022/03/10 01:59:05;;;;;;;28.45;14.40;;;;;;;-2.15;70.49;100171.19;5049096;28;20041;-51
2022/03/10 02:01:31;;;;;;;29.67;14.60;;;;;;;-2.35;70.30;100165.91;5047070;28;20052;-53
2022/03/10 02:03:57;;;;;;;28.45;13.50;;;;;;;-2.56;70.76;100163.41;5048816;28;20024;-52
2022/03/10 02:06:23;;;;;;;35.25;14.60;;;;;;;-2.23;71.44;100153.50;5057921;28;20020;-52
2022/03/10 02:11:33;;;;;;;34.22;14.77;;;;;;;-2.08;69.75;100153.91;5048092;28;20451;-53
2022/03/10 02:17:19;;;;;;;33.30;14.65;;;;;;;-2.20;70.32;100153.22;5076489;28;20127;-53
2022/03/10 02:19:27;;;;;;;35.42;14.30;;;;;;;-2.14;74.13;100150.06;5048990;28;20118;-50
2022/03/10 02:21:53;;;;;;;36.40;15.38;;;;;;;-2.41;71.54;100146.28;5046586;28;20024;-53
2022/03/10 02:24:18;;;;;;;33.13;14.43;;;;;;;-2.70;73.80;100148.03;5036616;28;20934;-53
2022/03/10 02:26:43;;;;;;;36.92;14.52;;;;;;;-2.42;71.35;100141.16;5086660;28;20090;-53
2022/03/10 02:29:09;;;;;;;27.50;12.63;;;;;;;-2.52;71.48;100149.06;5054342;28;20043;-51
2022/03/10 02:31:34;;;;;;;29.58;13.93;;;;;;;-2.53;72.59;100149.19;5085482;28;20079;-53
2022/03/10 02:34:00;;;;;;;29.23;13.98;;;;;;;-2.59;71.90;100145.31;5087883;28;20045;-50
2022/03/10 02:36:25;;;;;;;29.60;13.95;;;;;;;-2.56;72.58;100146.81;5048045;28;20418;-51
2022/03/10 02:38:51;;;;;;;32.53;15.85;;;;;;;-2.51;73.76;100149.88;5055156;28;20040;-53
2022/03/10 02:41:16;;;;;;;33.72;15.80;;;;;;;-2.29;74.40;100148.81;5058760;28;20082;-53
2022/03/10 02:43:42;;;;;;;28.83;15.52;;;;;;;-2.05;72.54;100146.56;5050934;28;20051;-51
2022/03/10 02:46:07;;;;;;;35.15;14.68;;;;;;;-2.21;71.40;100148.94;5052171;28;20387;-54
2022/03/10 02:48:32;;;;;;;30.20;13.38;;;;;;;-2.30;71.98;100141.88;5048471;28;20095;-52
2022/03/10 02:50:58;;;;;;;31.63;13.82;;;;;;;-2.03;71.95;100135.94;5051504;28;20427;-53
2022/03/10 02:53:23;;;;;;;30.35;13.55;;;;;;;-2.17;69.82;100137.19;5051955;28;20045;-52
2022/03/10 02:55:49;;;;;;;32.50;15.52;;;;;;;-1.96;73.37;100140.50;5048276;28;20052;-51
2022/03/10 02:58:14;;;;;;;37.50;14.10;;;;;;;-2.10;74.81;100138.28;5048214;28;20035;-52
2022/03/10 03:00:39;;;;;;;33.10;13.52;;;;;;;-2.24;70.99;100131.66;5054063;28;20470;-53
2022/03/10 03:03:05;;;;;;;34.30;13.93;;;;;;;-2.28;71.40;100132.06;5051031;28;20032;-52
2022/03/10 03:05:30;;;;;;;30.33;13.40;;;;;;;-1.90;74.24;100133.03;5055364;28;20281;-51
2022/03/10 03:07:56;;;;;;;32.65;13.82;;;;;;;-2.01;72.77;100126.94;5058439;28;20033;-53
2022/03/10 03:10:21;;;;;;;31.05;12.70;;;;;;;-2.33;70.97;100127.22;5050327;28;20114;-53
2022/03/10 03:12:48;;;;;;;29.05;12.98;;;;;;;-2.48;73.17;100123.34;5053738;28;20398;-52
2022/03/10 03:15:17;;;;;;;28.67;13.63;;;;;;;-2.67;71.55;100130.22;5058769;28;20048;-51
2022/03/10 03:17:43;;;;;;;30.05;13.77;;;;;;;-2.75;72.76;100121.34;5049174;28;20355;-53
2022/03/10 03:20:09;;;;;;;30.60;13.05;;;;;;;-2.80;71.99;100118.31;5049882;28;20036;-50
2022/03/10 03:22:34;;;;;;;30.08;13.38;;;;;;;-2.92;72.62;100131.56;5045272;28;20482;-53
2022/03/10 03:25:00;;;;;;;31.27;14.55;;;;;;;-3.20;73.74;100127.00;5054503;28;20041;-52
2022/03/10 03:27:25;;;;;;;37.55;14.50;;;;;;;-3.44;74.39;100136.03;5050675;28;20475;-53
2022/03/10 03:29:51;;;;;;;40.17;16.88;;;;;;;-3.37;75.66;100138.94;5056596;28;20514;-51
2022/03/10 03:32:16;;;;;;;34.95;15.35;;;;;;;-3.58;75.56;100139.78;5052724;28;20482;-52
2022/03/10 03:34:41;;;;;;;35.90;15.40;;;;;;;-3.37;76.85;100142.41;5052389;28;20040;-53
2022/03/10 03:37:07;;;;;;;30.38;14.73;;;;;;;-3.29;76.33;100131.28;5053504;28;20040;-52
2022/03/10 03:39:32;;;;;;;37.67;15.77;;;;;;;-3.07;77.75;100146.81;5053741;28;20028;-52
2022/03/10 03:41:58;;;;;;;30.75;14.68;;;;;;;-2.88;75.93;100148.66;5050685;28;20149;-51
2022/03/10 03:44:23;;;;;;;28.63;14.18;;;;;;;-3.05;74.55;100151.91;5053913;28;20537;-49
2022/03/10 03:46:49;;;;;;;35.78;16.25;;;;;;;-3.16;74.83;100146.78;5051074;28;20036;-52
2022/03/10 03:49:14;;;;;;;34.40;15.13;;;;;;;-3.26;76.71;100155.41;5035215;28;20391;-52
2022/03/10 03:51:39;;;;;;;33.53;14.73;;;;;;;-3.41;75.14;100153.28;5056945;28;20094;-51
2022/03/10 03:54:06;;;;;;;36.35;15.65;;;;;;;-3.27;75.78;100155.53;5058985;28;20037;-52
2022/03/10 03:56:31;;;;;;;33.47;15.60;;;;;;;-3.20;75.41;100158.47;5059551;28;20112;-50
2022/03/10 03:58:56;;;;;;;37.22;16.05;;;;;;;-2.89;74.73;100154.88;5057826;28;20555;-53
2022/03/10 04:01:23;;;;;;;30.35;14.88;;;;;;;-2.46;72.44;100147.66;5050491;28;20033;-52
2022/03/10 04:03:48;;;;;;;33.90;14.57;;;;;;;-2.38;72.15;100151.25;5055199;28;20028;-51
2022/03/10 04:06:16;;;;;;;33.45;14.77;;;;;;;-2.32;71.91;100149.06;5052049;28;20037;-50
2022/03/10 04:08:41;;;;;;;30.67;13.38;;;;;;;-2.34;71.04;100146.59;5055168;28;20025;-52
2022/03/10 04:11:06;;;;;;;33.55;15.07;;;;;;;-2.34;72.07;100151.00;5050730;28;20086;-52
2022/03/10 04:13:32;;;;;;;32.83;14.63;;;;;;;-2.53;72.42;100142.13;5051353;28;20041;-50
2022/03/10 04:15:57;;;;;;;36.30;14.65;;;;;;;-2.86;72.92;100141.50;5054422;28;20040;-53
2022/03/10 04:18:23;;;;;;;32.15;13.77;;;;;;;-2.99;74.19;100140.91;5057867;28;20052;-52
2022/03/10 04:20:48;;;;;;;36.17;15.00;;;;;;;-3.20;74.50;100145.38;5057336;28;20037;-52
2022/03/10 04:23:14;;;;;;;34.88;15.77;;;;;;;-3.47;75.03;100152.00;5050670;28;20398;-53
2022/03/10 04:25:40;;;;;;;30.98;15.90;;;;;;;-3.65;76.12;100143.06;5049865;28;20075;-52
2022/03/10 04:28:06;;;;;;;32.33;15.70;;;;;;;-3.59;77.08;100147.81;5056840;28;20387;-53
2022/03/10 04:30:34;;;;;;;34.00;15.30;;;;;;;-3.70;76.70;100152.13;5058457;28;20036;-50
2022/03/10 04:33:00;;;;;;;33.95;15.43;;;;;;;-3.88;77.08;100153.66;5060252;28;20111;-51
2022/03/10 04:35:25;;;;;;;32.97;15.20;;;;;;;-3.90;77.88;100150.34;5057634;28;20107;-52
2022/03/10 04:37:51;;;;;;;33.50;15.57;;;;;;;-3.71;77.58;100150.47;5052397;28;20064;-53
2022/03/10 04:40:17;;;;;;;35.83;16.67;;;;;;;-3.48;81.02;100153.78;5050446;28;20043;-50
2022/03/10 04:42:42;;;;;;;30.63;15.10;;;;;;;-3.50;79.93;100157.50;5049946;28;20025;-52
2022/03/10 04:45:08;;;;;;;39.95;17.20;;;;;;;-3.50;78.40;100160.13;5060325;28;20032;-49
2022/03/10 04:47:35;;;;;;;35.45;15.95;;;;;;;-3.34;79.22;100168.34;5057154;28;20086;-52
2022/03/10 04:50:00;;;;;;;37.72;16.83;;;;;;;-3.19;79.34;100166.22;5053064;28;20021;-53
2022/03/10 04:52:26;;;;;;;39.67;18.13;;;;;;;-2.95;79.92;100158.03;5055037;28;20118;-51
2022/03/10 04:54:52;;;;;;;34.88;16.90;;;;;;;-2.76;83.02;100164.31;5052406;28;20550;-51
2022/03/10 04:57:17;;;;;;;34.90;17.08;;;;;;;-3.09;78.30;100169.72;5049791;28;20029;-52
2022/03/10 04:59:43;;;;;;;36.70;14.18;;;;;;;-3.15;78.63;100177.28;5049969;28;20379;-52
2022/03/10 05:02:08;;;;;;;32.05;14.85;;;;;;;-3.22;79.63;100184.00;5049307;28;20087;-54
2022/03/10 05:04:34;;;;;;;30.55;13.88;;;;;;;-3.07;82.62;100177.44;5050324;28;20044;-54
2022/03/10 05:06:59;;;;;;;39.65;15.68;;;;;;;-3.45;77.95;100181.53;5052571;28;20029;-54
2022/03/10 05:09:25;;;;;;;37.47;16.85;;;;;;;-3.30;80.50;100182.03;5057376;28;20356;-52
2022/03/10 05:11:50;;;;;;;35.58;15.88;;;;;;;-3.32;78.23;100183.94;5059684;28;20501;-51
2022/03/10 05:14:15;;;;;;;32.88;15.07;;;;;;;-3.33;77.55;100180.50;5056994;28;20041;-51
2022/03/10 05:16:41;;;;;;;36.33;15.60;;;;;;;-3.30;79.56;100176.78;5051584;28;20029;-54
2022/03/10 05:19:06;;;;;;;28.70;15.07;;;;;;;-3.14;83.15;100184.19;5059362;28;20086;-52
2022/03/10 05:21:32;;;;;;;33.00;15.18;;;;;;;-3.48;79.66;100187.84;5048809;28;20704;-53
2022/03/10 05:23:57;;;;;;;43.38;16.45;;;;;;;-3.47;78.83;100178.19;5059390;28;20364;-53
2022/03/10 05:26:23;;;;;;;33.70;15.48;;;;;;;-3.46;79.15;100169.41;5055443;28;20028;-51
2022/03/10 05:28:48;;;;;;;39.65;15.77;;;;;;;-3.46;79.52;100190.38;5052563;28;20033;-53
2022/03/10 05:31:13;;;;;;;31.17;14.70;;;;;;;-3.48;79.16;100180.00;5047513;28;20044;-53
2022/03/10 05:33:39;;;;;;;31.58;15.25;;;;;;;-3.44;80.03;100185.81;5051607;28;20037;-52
2022/03/10 05:36:04;;;;;;;32.97;14.75;;;;;;;-3.35;79.77;100189.44;5061160;28;20426;-51
2022/03/10 05:38:30;;;;;;;32.20;16.02;;;;;;;-3.56;79.01;100198.16;5053134;28;20033;-51
2022/03/10 05:40:55;;;;;;;31.60;15.20;;;;;;;-3.86;78.36;100193.66;5052976;28;20021;-53
2022/03/10 05:43:20;;;;;;;33.47;15.25;;;;;;;-4.05;79.52;100193.50;5047764;28;20514;-54
2022/03/10 05:45:46;;;;;;;41.88;16.77;;;;;;;-4.06;79.70;100197.09;5047622;28;20025;-53
2022/03/10 05:48:11;;;;;;;33.78;15.90;;;;;;;-4.14;80.11;100193.31;5061989;28;20031;-53
2022/03/10 05:50:37;;;;;;;32.50;15.82;;;;;;;-4.12;80.45;100194.03;5054805;28;20391;-52
2022/03/10 05:53:03;;;;;;;34.78;15.40;;;;;;;-3.98;80.87;100197.28;5049779;28;20049;-51
2022/03/10 05:55:29;;;;;;;36.00;15.55;;;;;;;-3.70;83.24;100207.16;5053316;28;20025;-50
2022/03/10 05:57:54;;;;;;;35.22;15.55;;;;;;;-3.74;80.65;100208.38;5050848;28;20041;-54
2022/03/10 06:00:20;;;;;;;35.50;15.57;;;;;;;-3.72;80.37;100209.09;5053471;28;20058;-54
2022/03/10 06:02:45;;;;;;;42.65;18.00;;;;;;;-3.21;84.14;100209.28;5058228;28;20028;-53
2022/03/10 06:05:10;;;;;;;37.40;16.50;;;;;;;-3.21;83.68;100219.75;5048680;28;20110;-50
2022/03/10 06:07:36;;;;;;;32.90;15.55;;;;;;;-3.29;82.07;100223.03;5050651;28;20029;-53
2022/03/10 06:10:03;;;;;;;41.25;19.02;;;;;;;-3.09;82.10;100219.56;5055626;28;20112;-51
2022/03/10 06:12:28;;;;;;;34.65;17.50;;;;;;;-2.85;81.91;100215.78;5052704;28;20030;-55
2022/03/10 06:14:57;;;;;;;38.85;16.90;;;;;;;-2.56;82.13;100215.91;5057774;28;20417;-51
2022/03/10 06:17:23;;;;;;;41.75;16.00;;;;;;;-2.49;85.04;100211.78;5049022;28;20036;-54
2022/03/10 06:19:49;;;;;;;34.08;16.42;;;;;;;-2.17;84.67;100216.81;5055547;28;20033;-53
2022/03/10 06:22:21;;;;;;;42.40;17.33;;;;;;;-2.40;77.67;100216.22;5053646;28;20052;-53
2022/03/10 06:24:47;;;;;;;31.50;15.82;;;;;;;-2.50;76.15;100219.78;5056050;28;20087;-51
2022/03/10 06:27:16;;;;;;;33.65;15.80;;;;;;;-2.58;74.44;100215.19;5051143;28;20040;-53
2022/03/10 06:29:42;;;;;;;41.75;15.27;;;;;;;-2.28;75.24;100219.56;5053847;28;20032;-54
2022/03/10 06:32:07;;;;;;;33.20;15.82;;;;;;;-0.88;71.58;100226.06;5055035;28;20395;-54
2022/03/10 06:34:33;;;;;;;34.80;16.33;;;;;;;0.71;63.47;100224.75;5056459;28;20701;-53
2022/03/10 06:36:58;;;;;;;33.35;15.73;;;;;;;1.54;58.34;100232.13;5050636;28;20390;-52
2022/03/10 06:39:24;;;;;;;28.05;15.57;;;;;;;1.36;57.49;100234.03;5051075;28;20047;-52
2022/03/10 06:41:49;;;;;;;37.45;15.70;;;;;;;2.22;55.80;100230.31;5055691;28;20024;-55
2022/03/10 06:44:15;;;;;;;35.28;17.75;;;;;;;3.77;50.84;100234.47;5056722;28;20028;-52
2022/03/10 06:46:40;;;;;;;36.70;16.70;;;;;;;2.44;55.98;100231.50;5060588;28;20036;-53
2022/03/10 06:49:06;;;;;;;32.15;17.08;;;;;;;2.29;54.81;100242.72;5050764;28;20043;-54
2022/03/10 06:51:31;;;;;;;39.15;17.88;;;;;;;4.29;49.60;100239.16;5051656;28;20029;-52
2022/03/10 06:53:57;;;;;;;38.17;17.45;;;;;;;5.16;46.87;100249.34;5046162;28;20036;-54
2022/03/10 06:56:23;;;;;;;38.83;18.60;;;;;;;4.52;47.02;100245.28;5069174;28;20052;-52
2022/03/10 06:58:48;;;;;;;46.05;19.33;;;;;;;4.67;47.19;100247.16;5048661;28;20029;-55
2022/03/10 07:01:14;;;;;;;38.45;19.90;;;;;;;4.71;46.65;100240.47;5056106;28;20032;-52
2022/03/10 07:03:39;;;;;;;42.17;20.17;;;;;;;5.42;45.46;100238.28;5056232;28;20024;-55
2022/03/10 07:06:05;;;;;;;44.35;21.13;;;;;;;4.52;47.43;100247.13;5056872;28;20051;-52
2022/03/10 07:08:30;;;;;;;36.85;19.08;;;;;;;3.59;49.94;100246.16;5055391;28;20024;-51
2022/03/10 07:10:55;;;;;;;49.60;20.40;;;;;;;3.78;49.88;100244.09;5052868;28;20037;-51
2022/03/10 07:13:21;;;;;;;40.10;19.77;;;;;;;4.52;49.03;100245.28;5052486;28;20032;-53
2022/03/10 07:15:46;;;;;;;41.08;20.40;;;;;;;4.20;48.63;100250.84;5052365;28;20391;-52
2022/03/10 07:18:12;;;;;;;62.00;32.55;;;;;;;3.44;50.51;100247.88;5051552;28;20056;-53
2022/03/10 07:20:37;;;;;;;76.45;38.67;;;;;;;4.15;49.36;100247.88;5064988;28;20029;-53
2022/03/10 07:23:03;;;;;;;85.45;45.95;;;;;;;4.04;49.57;100247.28;5048762;28;20458;-52
2022/03/10 07:25:28;;;;;;;73.22;36.13;;;;;;;4.11;49.08;100250.03;5050861;28;20021;-52
2022/03/10 07:27:54;;;;;;;58.92;29.02;;;;;;;4.25;49.17;100256.44;5060509;28;20420;-54
2022/03/10 07:30:19;;;;;;;68.30;29.52;;;;;;;3.77;50.19;100253.91;5052545;28;20033;-53
2022/03/10 07:32:44;;;;;;;66.10;29.02;;;;;;;3.44;51.87;100267.28;5046720;28;20139;-53
2022/03/10 07:35:10;;;;;;;62.22;29.77;;;;;;;4.54;48.21;100261.88;5053279;28;20040;-54
2022/03/10 07:37:35;;;;;;;58.90;27.65;;;;;;;5.37;46.37;100262.75;5049946;28;20048;-54
2022/03/10 07:40:01;;;;;;;77.47;36.05;;;;;;;4.38;48.34;100261.16;5054430;28;20141;-53
2022/03/10 07:42:26;;;;;;;73.25;33.35;;;;;;;4.33;49.15;100256.38;5056795;28;20475;-54
2022/03/10 07:44:52;;;;;;;69.68;33.40;;;;;;;4.80;49.15;100255.34;5051294;28;20493;-51
2022/03/10 07:47:18;;;;;;;72.93;29.80;;;;;;;4.94;48.02;100251.91;5051895;28;20033;-54
2022/03/10 07:49:43;;;;;;;55.47;25.33;;;;;;;5.77;46.90;100260.63;5051914;28;20040;-54
2022/03/10 07:52:09;;;;;;;59.53;25.83;;;;;;;5.83;46.92;100264.34;5053727;28;20055;-52
2022/03/10 07:54:34;;;;;;;55.92;24.42;;;;;;;5.87;46.42;100251.53;5054699;28;20039;-51
2022/03/10 07:57:00;;;;;;;59.08;24.70;;;;;;;6.77;45.00;100253.69;5054873;28;20028;-53
2022/03/10 07:59:25;;;;;;;56.55;23.80;;;;;;;7.02;43.90;100247.94;5049988;28;20380;-54
2022/03/10 08:01:50;;;;;;;59.05;24.67;;;;;;;6.42;45.19;100242.09;5081065;28;20051;-54
2022/03/10 08:04:16;;;;;;;60.33;26.17;;;;;;;5.69;46.60;100246.56;5045894;28;20229;-54
2022/03/10 08:06:42;;;;;;;51.28;24.90;;;;;;;5.71;47.18;100244.56;5049134;28;20033;-53
2022/03/10 08:09:10;;;;;;;56.95;26.38;;;;;;;6.02;46.56;100249.69;5058451;28;20081;-51
2022/03/10 08:11:36;;;;;;;57.47;26.55;;;;;;;6.03;46.82;100241.50;5050322;28;20025;-52
2022/03/10 08:14:02;;;;;;;61.38;25.48;;;;;;;6.19;46.53;100251.09;5051033;28;20375;-53
2022/03/10 08:16:28;;;;;;;73.32;27.17;;;;;;;6.37;46.39;100252.50;5050536;28;20025;-53
2022/03/10 08:18:53;;;;;;;63.97;26.88;;;;;;;6.29;46.49;100255.28;5056259;28;20213;-51
2022/03/10 08:21:19;;;;;;;57.80;26.55;;;;;;;6.48;46.75;100258.13;5081978;28;20680;-54
2022/03/10 08:23:44;;;;;;;63.38;27.52;;;;;;;6.97;46.51;100258.34;5050355;28;20021;-52
2022/03/10 08:26:10;;;;;;;63.00;26.70;;;;;;;6.51;46.25;100253.44;5052021;28;20463;-55
2022/03/10 08:28:36;;;;;;;66.72;27.13;;;;;;;6.51;46.28;100256.94;5056476;28;20020;-50
2022/03/10 08:31:04;;;;;;;59.50;26.73;;;;;;;6.40;46.51;100257.44;5057584;28;20029;-55
2022/03/10 08:33:29;;;;;;;69.05;27.90;;;;;;;7.10;44.94;100256.59;5052368;28;20029;-55
2022/03/10 08:35:55;;;;;;;70.07;27.88;;;;;;;7.29;44.60;100257.75;5049786;28;20052;-54
2022/03/10 08:38:20;;;;;;;76.72;30.83;;;;;;;7.44;43.81;100265.63;5054849;28;20044;-53
2022/03/10 08:40:46;;;;;;;78.13;32.50;;;;;;;6.58;45.31;100252.50;5036933;28;20326;-55
2022/03/10 08:43:12;;;;;;;90.22;35.78;;;;;;;7.34;44.32;100251.84;5051222;28;20029;-54
2022/03/10 08:45:38;;;;;;;85.95;33.13;;;;;;;7.31;44.44;100257.53;5049604;28;20062;-51
2022/03/10 08:48:04;;;;;;;72.38;30.38;;;;;;;7.07;44.39;100248.16;5058416;28;20102;-53
2022/03/10 08:50:29;;;;;;;74.03;28.08;;;;;;;6.69;45.20;100244.00;5055018;28;20028;-52
2022/03/10 08:52:55;;;;;;;69.60;30.77;;;;;;;6.93;44.90;100247.25;5051450;28;20056;-53
2022/03/10 08:55:21;;;;;;;64.43;26.77;;;;;;;6.80;44.96;100242.63;5054382;28;20395;-53
2022/03/10 08:57:47;;;;;;;72.43;29.85;;;;;;;7.03;43.83;100247.72;5054560;28;20028;-54
2022/03/10 09:00:13;;;;;;;77.85;31.50;;;;;;;7.28;43.27;100240.09;5060228;28;20058;-55
2022/03/10 09:02:41;;;;;;;76.05;31.80;;;;;;;7.55;43.37;100234.91;5053451;28;20482;-54
2022/03/10 09:05:08;;;;;;;71.50;30.05;;;;;;;7.46;42.61;100231.59;5052702;28;20029;-54
2022/03/10 09:07:33;;;;;;;68.75;30.83;;;;;;;8.34;41.25;100234.34;5056879;28;20029;-54
2022/03/10 09:09:59;;;;;;;70.25;30.88;;;;;;;7.47;41.99;100229.75;5053078;28;20135;-53
2022/03/10 09:12:24;;;;;;;73.90;29.42;;;;;;;8.52;40.56;100232.97;5058535;28;20090;-54
2022/03/10 09:14:50;;;;;;;71.47;31.08;;;;;;;8.64;40.49;100224.13;5060055;28;20059;-54
2022/03/10 09:17:15;;;;;;;67.28;29.85;;;;;;;8.63;40.57;100232.34;5050588;28;20025;-53
2022/03/10 09:19:41;;;;;;;73.22;32.20;;;;;;;8.98;40.35;100229.44;5060491;28;20462;-53
2022/03/10 09:22:06;;;;;;;77.20;33.45;;;;;;;9.58;39.49;100224.78;5052979;28;20048;-51
2022/03/10 09:24:32;;;;;;;66.78;30.38;;;;;;;9.45;39.38;100225.66;5050018;28;20041;-53
2022/03/10 09:26:57;;;;;;;72.25;30.35;;;;;;;8.77;39.60;100227.81;5059301;28;20086;-54
2022/03/10 09:29:23;;;;;;;74.65;31.23;;;;;;;10.31;37.95;100221.78;5088712;28;20025;-51
2022/03/10 09:31:48;;;;;;;78.60;31.63;;;;;;;9.96;37.69;100221.34;5054803;28;20358;-51
2022/03/10 09:34:14;;;;;;;71.32;30.80;;;;;;;10.17;37.88;100216.69;5060973;28;20433;-54
2022/03/10 09:36:39;;;;;;;74.55;29.35;;;;;;;10.18;38.91;100211.09;5053793;28;20467;-52
2022/03/10 09:39:05;;;;;;;76.70;29.33;;;;;;;10.95;36.58;100213.63;5051500;28;20025;-55
2022/03/10 09:41:30;;;;;;;62.80;27.92;;;;;;;11.48;35.88;100214.94;5058560;28;20078;-54
2022/03/10 09:43:55;;;;;;;85.82;32.78;;;;;;;10.84;36.95;100212.50;5054770;28;20487;-53
2022/03/10 09:46:21;;;;;;;65.28;29.80;;;;;;;10.83;36.24;100210.84;5088388;28;20098;-52
2022/03/10 09:48:47;;;;;;;72.55;29.83;;;;;;;10.51;36.78;100202.88;5053121;28;20443;-54
2022/03/10 09:51:13;;;;;;;97.43;31.95;;;;;;;10.60;35.96;100202.59;5054620;28;20024;-54
2022/03/10 09:53:39;;;;;;;85.22;29.98;;;;;;;10.53;37.07;100202.63;5053980;28;20040;-51
2022/03/10 09:56:05;;;;;;;86.55;31.10;;;;;;;10.88;36.63;100207.50;5060585;28;20037;-54
2022/03/10 09:58:31;;;;;;;77.85;29.17;;;;;;;11.53;35.61;100198.97;5054191;28;20729;-51
2022/03/10 10:01:03;;;;;;;80.07;32.03;;;;;;;11.06;35.33;100204.03;5063210;28;20032;-54
2022/03/10 10:03:28;;;;;;;96.68;33.90;;;;;;;10.21;36.62;100209.84;5058373;28;20458;-54
2022/03/10 10:05:58;;;;;;;85.20;31.73;;;;;;;10.56;38.11;100211.06;5054562;28;20541;-51
2022/03/10 10:08:23;;;;;;;88.53;29.23;;;;;;;11.83;35.59;100221.34;5049402;28;20021;-54
2022/03/10 10:10:56;;;;;;;90.18;29.73;;;;;;;11.91;34.86;100211.38;5084767;28;20432;-54
2022/03/10 10:13:28;;;;;;;98.88;32.35;;;;;;;11.45;35.17;100218.88;5064757;28;20040;-54
2022/03/10 10:15:58;;;;;;;106.75;36.00;;;;;;;11.42;34.93;100214.78;5054441;28;20077;-51
2022/03/10 10:18:24;;;;;;;121.82;39.33;;;;;;;12.02;34.62;100218.63;5055817;28;20032;-52
2022/03/10 10:20:51;;;;;;;130.93;41.67;;;;;;;12.06;34.81;100214.44;5048763;28;20029;-53
2022/03/10 10:23:23;;;;;;;138.82;41.53;;;;;;;12.35;34.55;100201.22;5052788;28;20025;-54
2022/03/10 10:25:59;;;;;;;126.03;39.22;;;;;;;12.14;35.03;100206.06;5052496;28;20150;-55
2022/03/10 10:28:29;;;;;;;153.05;42.40;;;;;;;12.27;34.70;100197.78;5060044;28;20032;-54
2022/03/10 10:30:57;;;;;;;141.07;42.80;;;;;;;14.14;32.49;100197.84;5046828;28;20036;-52
2022/03/10 10:33:22;;;;;;;138.20;41.28;;;;;;;13.69;32.42;100197.81;5047228;28;20087;-53
2022/03/10 10:35:48;;;;;;;144.18;40.42;;;;;;;12.64;33.95;100200.31;5052059;28;20025;-54
2022/03/10 10:38:30;;;;;;;154.68;40.17;;;;;;;12.82;34.27;100193.19;5051694;28;20035;-52
2022/03/10 10:41:34;;;;;;;150.98;38.72;;;;;;;12.56;34.20;100197.97;5050454;28;20072;-52
2022/03/10 10:44:00;;;;;;;113.13;37.80;;;;;;;13.29;33.77;100190.53;5012543;28;20089;-54
2022/03/10 10:46:28;;;;;;;129.70;36.22;;;;;;;14.20;32.27;100185.25;4999360;28;20041;-53
2022/03/10 10:48:54;;;;;;;136.10;37.53;;;;;;;13.42;32.89;100184.06;5032642;28;20147;-54
2022/03/10 10:51:33;;;;;;;122.80;35.97;;;;;;;13.74;32.78;100182.53;5049663;28;20044;-54
2022/03/10 10:53:59;;;;;;;127.22;35.92;;;;;;;14.14;32.51;100176.28;5049064;28;20055;-54
2022/03/10 10:56:25;;;;;;;142.77;40.83;;;;;;;13.99;33.27;100171.44;5049341;28;20033;-54
2022/03/10 10:58:54;;;;;;;143.32;44.03;;;;;;;13.67;33.21;100170.28;5050156;28;20586;-53
2022/03/10 11:01:31;;;;;;;145.23;43.83;;;;;;;13.62;33.03;100167.47;5056664;28;20029;-55
2022/03/10 11:03:56;;;;;;;131.02;37.80;;;;;;;13.33;33.19;100162.88;5047858;28;20051;-53
2022/03/10 11:06:22;;;;;;;107.35;36.67;;;;;;;14.26;32.44;100153.84;5051764;28;20483;-53
2022/03/10 11:08:48;;;;;;;85.43;33.13;;;;;;;13.59;34.12;100155.31;5056807;28;20078;-51
2022/03/10 11:11:15;;;;;;;121.70;33.03;;;;;;;14.02;34.13;100149.38;5046735;28;20107;-53